Algonac, MI

7:44 PM EST on December 17, 2014 (GMT -0500)
Downtown Pearl Beach | Change Station
CLOSE
Current Station
Personal Weather Station
Location: Algonac, MI
Elevation: 574 ft
Nearby Weather Stations

Elev 574 ft 42.63 °N, 82.60 °W | Updated 7 minutes ago

Overcast
Overcast
29.7 °F
Feels Like 20 °F
N
11.4
Wind Variable Wind from West

Today
High -- | Low -- °F
--% Chance of Precip.
Yesterday
High -- | Low -- °F
Precip. -- in
7:54 AM 4:58 PM
Waning Crescent, 18% visible
Pressure 30.09 in
Visibility 12.0 miles
Clouds Scattered Clouds 2800 ft
Overcast 3000 ft
Windchill 20 °F
Dew Point 22 °F
Humidity 74%
Rainfall 0.11 in
Snow Depth Not available.
UV 0 out of 12
Pollen .10 out of 12
Air Quality Not available.
Flu Activity Not available.
SPECI KMTC 180022Z 29009G18KT 12SM VCSH SCT028 OVC030 M01/M06 A3009

More Conditions Fewer Conditions

Pressure 30.09 in
Visibility 12.0 miles
Clouds Scattered Clouds 2800 ft
Overcast 3000 ft
Windchill 20 °F
Dew Point 22 °F
Humidity 74%
Rainfall 0.11 in
Snow Depth Not available.
UV 0 out of 12
Pollen .10 out of 12
Air Quality Not available.
Flu Activity Not available.
SPECI KMTC 180022Z 29009G18KT 12SM VCSH SCT028 OVC030 M01/M06 A3009

More Conditions Fewer Conditions

10-Day Weather Forecast

Almanac

Astronomy

Dec. 17, 2014 Rise Set
Actual Time
Civil Twilight
Nautical Twilight
Astronomical Twilight
Moon
Length of Visible Light
Length of Day
Tomorrow will be .
, % of the Moon is Illuminated

Today's Extremes

State Highs State Lows

Community

WunderPhotos

Upload Photos

1,778,837 photos uploaded!

WunderBlogs® & News

Nearby

Air Quality

  Air Quality AQ Index Pollutant
Not available.

Snow Depth

Station Depth Elevation

Earthquake Activity

City Distance Mag. Time & Date
Minimum magnitude displayed is 2.5.

Coastal Water Temperatures

Place Temperature

Nearby Weather Stations